KRWL/RWL METAR and TAF weather

Enter ICAO airport designator
Station Type Date Time Source
KRWL METAR 2020/08/15 10:53 UTC NOAA

KRWL 151053Z AUTO 00000KT 10SM CLR 08/M04 A3031 RMK AO2 SLP171 T00831039


Station Type Date Time Source
KRWL Decoded METAR 2020/08/15 10:53 UTC NOAA

RAWLINS MUNICIPAL AIRPORT, WY, United States (KRWL) 41-48N 107-12W
Aug 15, 2020 - 06:53 AM EDT / 2020.08.15 1053 UTC
Wind: Calm:0
Visibility: 10 mile(s):0
Sky conditions: clear
Temperature: 46.9 F (8.3 C)
Dew Point: 25.0 F (-3.9 C)
Relative Humidity: 41%
Pressure (altimeter): 30.31 in. Hg (1026 hPa)
ob: KRWL 151053Z AUTO 00000KT 10SM CLR 08/M04 A3031 RMK AO2 SLP171 T00831039
cycle: 11

Station Type Date Time Source
KRWL TAF 2020/08/15 06:24 UTC NOAA

TAF KRWL 150521Z 1506/1606 29008KT P6SM SKC
FM151200 25004KT P6SM SKC
FM151800 27010G20KT P6SM SKC
FM160100 31008KT P6SM SKC

Example: see airport list